rc-heli.de alexa rank chart, rc-heli.de alexa rank daily changes

rc-heli.de alexa rank chart, rc-heli.de alexa rank daily changes

rc-heli.de
Actual rank:
412 557

RANK HISTORY

Date Rank Diff
2018/01/19 412 557 +18 154
2018/01/18 394 403 -3 537
2018/01/17 397 940 -1 769
2018/01/16 399 709 -14 864
2018/01/15 414 573 +16 492
2018/01/14 398 081 +6 095
2018/01/13 391 986 -4 891
2018/01/12 396 877 +7 853
2018/01/11 389 024 +144
2018/01/10 388 880 +5 616
2018/01/09 383 264 -1 293
2018/01/08 384 557 -27 308
2018/01/07 411 865 +9 462
2018/01/06 402 403 -11 797
2018/01/05 414 200 +6 464
2018/01/04 407 736 +13 538
2018/01/03 394 198 +2 222
2018/01/02 391 976 -18 461
2018/01/01 410 437 -3 383
2017/12/31 413 820 -674
2017/12/30 414 494 -4 132
2017/12/29 418 626 -2 750
2017/12/28 421 376 -11 147
2017/12/27 432 523 +14 939
2017/12/26 417 584 -10 831
2017/12/25 428 415 -7 257
2017/12/24 435 672 -4 476
2017/12/23 440 148 +4 054
2017/12/22 436 094 +24 462
2017/12/21 411 632 +7 876
2017/12/20 403 756 +1 000
2017/12/19 402 756 +15 054
2017/12/18 387 702 -18 890
2017/12/17 406 592 -1 015
2017/12/16 407 607 +12 346
2017/12/15 395 261 -22 581
2017/12/14 417 842 +19 468
2017/12/13 398 374 +8 160
2017/12/12 390 214 -9 270
2017/12/11 399 484 -2 560
2017/12/10 402 044 -6 598
2017/12/09 408 642 +19 683
2017/12/08 388 959 +15 245
2017/12/07 373 714 -5 552
2017/12/06 379 266 +20 398
2017/12/05 358 868 -62
2017/12/04 358 930 -14 387
2017/12/03 373 317 +11 676
2017/12/02 361 641 +24 480
2017/12/01 337 161 +2 810
2017/11/30 334 351 -1 611
2017/11/29 335 962 +5 438
2017/11/28 330 524 -6 967
2017/11/27 337 491 -11 557
2017/11/26 349 048 -1 865
2017/11/25 350 913 -2 712
2017/11/24 353 625 +9 289
2017/11/23 344 336 +2 839
2017/11/22 341 497 -19 599
2017/11/21 361 096 +6 570
2017/11/20 354 526

WIDGET FOR YOUR SITE

DOMAINS WITH THE NEAREST RANK

Domain Rank
cimec.ro 412 552
xuezhouyi.com 412 553
pyarab.com 412 554
snorezing.com 412 555
jetstream.mx 412 556
rc-heli.de 412 557
siicex-caaarem.org.mx 412 558
maxspeed-service-io.stream 412 559
activity-net.org 412 560
giaoductayninh.vn 412 561
sapphic-erotica.com 412 562

DOMAINS WITH THE NEAREST RANK BY TLD .de

Domain Rank
clickmag.de 412 245
tu-sport.de 412 273
partylite.de 412 352
garmin.de 412 440
mux.de 412 493
rc-heli.de 412 557
geodatenzentrum.de 412 592
gs.de 412 702
extremtextil.de 412 712
hr-inforadio.de 412 784
tttankstation.de 412 818